createdAt,value
2023-03-30T00:00:20.184Z,95387.31
2023-03-30T00:02:53.878Z,95389.63
2023-03-30T00:05:25.997Z,95398.03
2023-03-30T00:07:58.276Z,95387.00
2023-03-30T00:10:30.069Z,95383.97
2023-03-30T00:13:02.077Z,95382.06
2023-03-30T00:15:36.178Z,95376.72
2023-03-30T00:18:09.372Z,95372.53
2023-03-30T00:20:43.414Z,95364.91
2023-03-30T00:23:15.645Z,95358.03
2023-03-30T00:25:47.221Z,95360.31
2023-03-30T00:28:18.764Z,95358.78
2023-03-30T00:30:50.484Z,95351.56
2023-03-30T00:33:33.589Z,95351.13
2023-03-30T00:36:09.219Z,95349.97
2023-03-30T00:38:41.076Z,95343.47
2023-03-30T00:41:13.078Z,95345.78
2023-03-30T00:43:59.249Z,95334.75
2023-03-30T00:46:31.738Z,95323.69
2023-03-30T00:49:08.956Z,95325.56
2023-03-30T00:51:42.411Z,95320.63
2023-03-30T00:54:19.007Z,95324.03
2023-03-30T00:56:51.229Z,95325.19
2023-03-30T00:59:22.955Z,95318.72
2023-03-30T01:01:55.364Z,95319.09
2023-03-30T01:04:28.366Z,95330.88
2023-03-30T01:07:00.931Z,95320.19
2023-03-30T01:09:32.487Z,95325.53
2023-03-30T01:12:05.309Z,95317.91
2023-03-30T01:14:38.543Z,95317.19
2023-03-30T01:17:28.268Z,95310.34
2023-03-30T01:20:30.611Z,95310.34
2023-03-30T01:23:39.510Z,95316.06
2023-03-30T01:26:18.055Z,95305.44
2023-03-30T01:29:06.068Z,95304.69
2023-03-30T01:31:53.074Z,95299.75
2023-03-30T01:34:43.001Z,95303.94
2023-03-30T01:37:40.622Z,95299.75
2023-03-30T01:40:27.963Z,95303.97
2023-03-30T01:43:11.228Z,95294.06
2023-03-30T01:45:44.887Z,95309.72
2023-03-30T01:48:35.722Z,95314.28
2023-03-30T01:51:11.514Z,95304.75
2023-03-30T01:53:55.340Z,95305.91
2023-03-30T01:56:33.107Z,95315.88
2023-03-30T01:59:10.582Z,95325.41
2023-03-30T02:01:51.013Z,95317.78
2023-03-30T02:04:24.570Z,95315.13
2023-03-30T02:07:01.017Z,95311.69
2023-03-30T02:09:36.443Z,95315.16
2023-03-30T02:12:10.497Z,95321.69
2023-03-30T02:14:42.624Z,95319.06
2023-03-30T02:17:18.266Z,95313.38
2023-03-30T02:19:50.976Z,95314.16
2023-03-30T02:22:23.894Z,95312.28
2023-03-30T02:24:57.834Z,95321.84
2023-03-30T02:27:29.762Z,95320.38
2023-03-30T02:30:01.692Z,95328.84
2023-03-30T02:32:45.843Z,95335.78
2023-03-30T02:35:50.127Z,95346.84
2023-03-30T02:38:35.332Z,95338.88
2023-03-30T02:41:28.393Z,95354.13
2023-03-30T02:44:17.756Z,95358.34
2023-03-30T02:47:18.133Z,95363.31
2023-03-30T02:49:59.984Z,95370.94
2023-03-30T02:53:23.474Z,95370.16
2023-03-30T02:56:08.910Z,95368.69
2023-03-30T02:59:05.120Z,95369.81
2023-03-30T03:01:50.726Z,95367.88
2023-03-30T03:04:23.560Z,95371.72
2023-03-30T03:06:55.800Z,95378.19
2023-03-30T03:09:29.884Z,95367.50
2023-03-30T03:12:01.438Z,95353.72
2023-03-30T03:14:32.929Z,95343.03
2023-03-30T03:17:05.829Z,95351.78
2023-03-30T03:19:37.388Z,95347.97
2023-03-30T03:22:08.870Z,95346.44
2023-03-30T03:24:40.751Z,95340.28
2023-03-30T03:27:12.308Z,95339.13
2023-03-30T03:29:43.813Z,95334.53
2023-03-30T03:32:17.713Z,95338.72
2023-03-30T03:34:49.228Z,95339.88
2023-03-30T03:37:20.871Z,95356.22
2023-03-30T03:39:52.433Z,95374.53
2023-03-30T03:42:24.077Z,95383.63
2023-03-30T03:44:55.723Z,95392.69
2023-03-30T03:47:27.299Z,95404.88
2023-03-30T03:49:59.566Z,95411.72
2023-03-30T03:52:31.231Z,95409.09
2023-03-30T03:55:04.517Z,95421.31
2023-03-30T03:57:36.986Z,95426.66
2023-03-30T04:00:16.365Z,95419.78
2023-03-30T04:02:47.975Z,95414.81
2023-03-30T04:05:19.540Z,95408.28
2023-03-30T04:07:53.481Z,95412.84
2023-03-30T04:10:25.384Z,95416.28
2023-03-30T04:12:57.849Z,95418.19
2023-03-30T04:15:29.344Z,95424.25
2023-03-30T04:18:01.770Z,95437.94
2023-03-30T04:20:33.367Z,95436.78
2023-03-30T04:23:04.891Z,95442.09
2023-03-30T04:25:36.527Z,95450.44
2023-03-30T04:28:08.215Z,95450.75
2023-03-30T04:30:40.988Z,95454.88
2023-03-30T04:33:14.569Z,95450.69
2023-03-30T04:35:46.189Z,95435.78
2023-03-30T04:38:22.240Z,95449.91
2023-03-30T04:40:55.158Z,95450.97
2023-03-30T04:43:26.761Z,95446.78
2023-03-30T04:45:58.346Z,95444.09
2023-03-30T04:48:29.851Z,95456.25
2023-03-30T04:51:01.627Z,95444.78
2023-03-30T04:53:34.816Z,95441.78
2023-03-30T04:56:06.677Z,95436.84
2023-03-30T04:58:38.227Z,95434.13
2023-03-30T05:01:10.288Z,95424.59
2023-03-30T05:03:41.835Z,95421.56
2023-03-30T05:06:13.474Z,95417.03
2023-03-30T05:08:45.000Z,95421.25
2023-03-30T05:11:16.543Z,95410.56
2023-03-30T05:13:51.176Z,95406.75
2023-03-30T05:16:22.858Z,95403.72
2023-03-30T05:18:54.382Z,95401.47
2023-03-30T05:21:26.180Z,95399.19
2023-03-30T05:23:58.295Z,95395.41
2023-03-30T05:26:30.573Z,95382.81
2023-03-30T05:29:02.163Z,95389.63
2023-03-30T05:31:33.775Z,95387.00
2023-03-30T05:34:05.877Z,95382.44
2023-03-30T05:36:38.077Z,95382.81
2023-03-30T05:39:09.922Z,95374.00
2023-03-30T05:41:41.483Z,95359.13
2023-03-30T05:44:13.015Z,95352.28
2023-03-30T05:46:44.817Z,95338.16
2023-03-30T05:49:16.481Z,95338.94
2023-03-30T05:51:48.122Z,95324.47
2023-03-30T05:54:19.882Z,95326.34
2023-03-30T05:56:52.514Z,95324.09
2023-03-30T05:59:24.513Z,95324.88
2023-03-30T06:01:56.379Z,95315.34
2023-03-30T06:04:28.170Z,95314.97
2023-03-30T06:06:59.730Z,95310.78
2023-03-30T06:09:31.906Z,95299.78
2023-03-30T06:12:04.292Z,95288.75
2023-03-30T06:14:35.711Z,95290.28
2023-03-30T06:17:08.721Z,95286.53
2023-03-30T06:19:41.675Z,95277.75
2023-03-30T06:22:13.271Z,95277.03
2023-03-30T06:24:44.748Z,95263.69
2023-03-30T06:27:16.302Z,95273.25
2023-03-30T06:29:47.852Z,95258.38
2023-03-30T06:32:19.460Z,95256.81
2023-03-30T06:34:51.050Z,95259.91
2023-03-30T06:37:23.090Z,95251.88
2023-03-30T06:39:54.713Z,95245.78
2023-03-30T06:42:27.897Z,95245.41
2023-03-30T06:44:59.406Z,95243.53
2023-03-30T06:47:30.995Z,95236.66
2023-03-30T06:50:03.658Z,95221.38
2023-03-30T06:52:36.408Z,95205.75
2023-03-30T06:55:08.211Z,95209.16
2023-03-30T06:57:39.859Z,95215.66
2023-03-30T07:00:13.872Z,95213.41
2023-03-30T07:02:45.509Z,95208.44
2023-03-30T07:05:17.319Z,95211.91
2023-03-30T07:07:48.937Z,95212.69
2023-03-30T07:10:21.371Z,95205.09
2023-03-30T07:12:53.172Z,95199.78
2023-03-30T07:15:24.814Z,95193.31
2023-03-30T07:17:56.412Z,95194.50
2023-03-30T07:20:28.090Z,95194.56
2023-03-30T07:22:59.606Z,95190.00
2023-03-30T07:25:31.594Z,95183.53
2023-03-30T07:28:06.291Z,95188.13
2023-03-30T07:30:39.050Z,95189.66
2023-03-30T07:33:11.455Z,95189.25
2023-03-30T07:35:44.978Z,95194.19
2023-03-30T07:38:16.574Z,95191.53
2023-03-30T07:40:48.568Z,95196.50
2023-03-30T07:43:20.078Z,95200.31
2023-03-30T07:45:51.997Z,95194.97
2023-03-30T07:48:23.752Z,95183.91
2023-03-30T07:51:03.671Z,95169.41
2023-03-30T07:53:36.629Z,95188.47
2023-03-30T07:56:08.313Z,95162.13
2023-03-30T07:58:40.501Z,95165.59
2023-03-30T08:01:13.195Z,95174.38
2023-03-30T08:03:48.652Z,95168.63
2023-03-30T08:06:20.345Z,95148.41
2023-03-30T08:08:52.506Z,95138.88
2023-03-30T08:11:24.083Z,95144.59
2023-03-30T08:13:55.624Z,95152.59
2023-03-30T08:16:27.309Z,95143.44
2023-03-30T08:18:58.910Z,95138.09
2023-03-30T08:21:30.454Z,95145.31
2023-03-30T08:24:02.149Z,95140.38
2023-03-30T08:26:33.807Z,95147.63
2023-03-30T08:29:07.032Z,95129.63
2023-03-30T08:31:41.718Z,95129.66
2023-03-30T08:34:13.574Z,95134.97
2023-03-30T08:36:45.103Z,95132.66
2023-03-30T08:39:16.834Z,95142.97
2023-03-30T08:42:21.253Z,95148.69
2023-03-30T08:44:57.137Z,95142.59
2023-03-30T08:47:42.076Z,95138.38
2023-03-30T08:50:32.200Z,95149.81
2023-03-30T08:53:06.104Z,95145.22
2023-03-30T08:55:47.125Z,95137.53
2023-03-30T08:58:26.411Z,95119.50
2023-03-30T09:01:25.239Z,95124.00
2023-03-30T09:04:18.957Z,95132.31
2023-03-30T09:06:53.753Z,95134.91
2023-03-30T09:09:30.130Z,95143.69
2023-03-30T09:12:11.865Z,95137.88
2023-03-30T09:15:05.494Z,95135.09
2023-03-30T09:17:39.136Z,95138.41
2023-03-30T09:20:23.988Z,95147.63
2023-03-30T09:22:59.775Z,95140.19
2023-03-30T09:25:53.608Z,95148.78
2023-03-30T09:28:59.199Z,95154.38
2023-03-30T09:31:41.290Z,95149.84
2023-03-30T09:34:27.371Z,95146.97
2023-03-30T09:37:09.395Z,95145.38
2023-03-30T09:39:41.488Z,95154.84
2023-03-30T09:42:22.000Z,95154.69
2023-03-30T09:45:25.446Z,95147.28
2023-03-30T09:47:57.003Z,95162.53
2023-03-30T09:50:29.245Z,95155.34
2023-03-30T09:53:07.184Z,95167.34
2023-03-30T09:55:38.756Z,95167.53
2023-03-30T09:58:14.997Z,95162.94
2023-03-30T10:01:00.737Z,95156.03
2023-03-30T10:03:33.123Z,95156.75
2023-03-30T10:06:08.141Z,95154.84
2023-03-30T10:08:49.931Z,95147.69
2023-03-30T10:11:35.397Z,95146.28
2023-03-30T10:14:23.548Z,95154.63
2023-03-30T10:16:56.277Z,95150.81
2023-03-30T10:19:29.798Z,95143.09
2023-03-30T10:22:04.929Z,95147.81
2023-03-30T10:24:49.428Z,95150.56
2023-03-30T10:27:34.032Z,95156.25
2023-03-30T10:30:12.169Z,95165.28
2023-03-30T10:32:46.852Z,95164.66
2023-03-30T10:35:23.629Z,95181.41
2023-03-30T10:37:56.808Z,95193.63
2023-03-30T10:40:37.685Z,95183.69
2023-03-30T10:43:15.759Z,95194.03
2023-03-30T10:45:50.006Z,95213.41
2023-03-30T10:49:00.287Z,95209.25
2023-03-30T10:52:08.710Z,95227.38
2023-03-30T10:54:48.801Z,95219.38
2023-03-30T10:57:24.860Z,95232.72
2023-03-30T11:00:15.502Z,95239.75
2023-03-30T11:02:57.366Z,95246.78
2023-03-30T11:05:35.933Z,95247.50
2023-03-30T11:08:12.587Z,95262.47
2023-03-30T11:10:48.023Z,95278.25
2023-03-30T11:13:40.226Z,95271.94
2023-03-30T11:16:33.449Z,95283.50
2023-03-30T11:19:18.616Z,95294.28
2023-03-30T11:21:59.564Z,95311.56
2023-03-30T11:24:35.817Z,95306.25
2023-03-30T11:27:29.319Z,95310.03
2023-03-30T11:30:14.439Z,95310.06
2023-03-30T11:33:04.637Z,95320.38
2023-03-30T11:35:58.104Z,95311.94
2023-03-30T11:38:44.588Z,95314.56
2023-03-30T11:41:23.494Z,95316.81
2023-03-30T11:43:56.219Z,95329.44
2023-03-30T11:46:42.289Z,95343.88
2023-03-30T11:49:25.782Z,95345.69
2023-03-30T11:52:22.716Z,95350.59
2023-03-30T11:55:29.787Z,95361.53
2023-03-30T11:58:14.701Z,95373.66
2023-03-30T12:01:15.304Z,95406.31
2023-03-30T12:03:52.156Z,95392.88
2023-03-30T12:06:32.366Z,95382.00
2023-03-30T12:09:11.465Z,95372.00
2023-03-30T12:11:54.960Z,95378.84
2023-03-30T12:14:40.094Z,95370.72
2023-03-30T12:18:10.809Z,95363.75
2023-03-30T12:21:10.226Z,95337.06
2023-03-30T12:23:55.935Z,95355.00
2023-03-30T12:26:34.463Z,95352.22
2023-03-30T12:29:52.784Z,95340.91
2023-03-30T12:32:07.389Z,95326.56
2023-03-30T12:34:41.608Z,95306.84
2023-03-30T12:37:24.142Z,95310.03
2023-03-30T12:40:29.484Z,95314.28
2023-03-30T12:43:14.857Z,95307.13
2023-03-30T12:46:03.469Z,95305.56
2023-03-30T12:49:10.861Z,95304.13
2023-03-30T12:51:51.461Z,95310.53
2023-03-30T12:54:26.036Z,95305.56
2023-03-30T12:57:36.628Z,95295.66
2023-03-30T13:00:26.229Z,95296.69
2023-03-30T13:03:05.556Z,95285.63
2023-03-30T13:05:42.914Z,95300.88
2023-03-30T13:08:39.110Z,95304.31
2023-03-30T13:11:18.904Z,95296.59
2023-03-30T13:14:01.472Z,95291.75
2023-03-30T13:17:10.826Z,95291.38
2023-03-30T13:19:45.602Z,95273.50
2023-03-30T13:22:18.688Z,95272.72
2023-03-30T13:24:55.369Z,95270.72
2023-03-30T13:27:35.593Z,95270.72
2023-03-30T13:30:07.793Z,95262.69
2023-03-30T13:32:42.632Z,95254.00
2023-03-30T13:35:39.159Z,95252.97
2023-03-30T13:38:20.080Z,95262.56
2023-03-30T13:41:05.171Z,95269.31
2023-03-30T13:44:04.320Z,95261.25
2023-03-30T13:46:52.556Z,95278.34
2023-03-30T13:50:05.622Z,95271.97
2023-03-30T13:52:47.170Z,95270.38
2023-03-30T13:55:33.326Z,95266.56
2023-03-30T13:58:16.053Z,95271.16
2023-03-30T14:00:50.489Z,95263.91
2023-03-30T14:03:42.163Z,95276.50
2023-03-30T14:06:14.333Z,95281.81
2023-03-30T14:08:49.054Z,95279.09
2023-03-30T14:11:24.140Z,95280.31
2023-03-30T14:13:55.733Z,95280.28
2023-03-30T14:16:34.065Z,95286.41
2023-03-30T14:19:35.857Z,95275.78
2023-03-30T14:22:19.844Z,95272.41
2023-03-30T14:25:02.863Z,95255.97
2023-03-30T14:27:39.884Z,95252.97
2023-03-30T14:30:30.759Z,95250.63
2023-03-30T14:33:10.432Z,95234.19
2023-03-30T14:36:15.382Z,95202.59
2023-03-30T14:38:49.579Z,95202.25
2023-03-30T14:41:31.523Z,95206.50
2023-03-30T14:44:08.549Z,95209.66
2023-03-30T14:46:43.125Z,95220.78
2023-03-30T14:49:28.087Z,95224.28
2023-03-30T14:52:15.031Z,95210.22
2023-03-30T14:55:05.317Z,95206.44
2023-03-30T14:57:40.388Z,95195.38
2023-03-30T15:00:21.090Z,95187.34
2023-03-30T15:02:58.972Z,95199.19
2023-03-30T15:05:37.160Z,95208.75
2023-03-30T15:08:24.970Z,95208.31
2023-03-30T15:11:09.543Z,95221.56
2023-03-30T15:13:52.946Z,95229.50
2023-03-30T15:16:28.707Z,95220.69
2023-03-30T15:19:10.799Z,95232.53
2023-03-30T15:21:43.227Z,95228.66
2023-03-30T15:24:21.574Z,95226.38
2023-03-30T15:26:58.480Z,95221.03
2023-03-30T15:29:30.172Z,95222.19
2023-03-30T15:32:07.179Z,95219.16
2023-03-30T15:35:01.230Z,95211.53
2023-03-30T15:37:35.148Z,95206.28
2023-03-30T15:40:26.569Z,95212.94
2023-03-30T15:43:16.357Z,95198.78
2023-03-30T15:46:13.879Z,95201.38
2023-03-30T15:48:50.597Z,95185.03
2023-03-30T15:51:40.076Z,95193.09
2023-03-30T15:54:35.984Z,95189.28
2023-03-30T15:57:11.163Z,95207.22
2023-03-30T15:59:52.285Z,95199.97
2023-03-30T16:02:37.863Z,95202.56
2023-03-30T16:05:18.215Z,95178.16
2023-03-30T16:07:50.233Z,95192.53
2023-03-30T16:10:28.358Z,95187.44
2023-03-30T16:13:01.367Z,95194.19
2023-03-30T16:15:33.840Z,95204.53
2023-03-30T16:18:05.987Z,95192.72
2023-03-30T16:20:37.408Z,95197.91
2023-03-30T16:23:09.301Z,95201.19
2023-03-30T16:25:45.194Z,95209.38
2023-03-30T16:28:18.486Z,95205.25
2023-03-30T16:30:52.545Z,95211.81
2023-03-30T16:33:24.500Z,95216.41
2023-03-30T16:35:56.084Z,95211.44
2023-03-30T16:38:27.622Z,95220.97
2023-03-30T16:40:59.915Z,95215.59
2023-03-30T16:43:31.752Z,95220.94
2023-03-30T16:46:03.350Z,95206.78
2023-03-30T16:48:35.003Z,95208.28
2023-03-30T16:51:08.086Z,95212.78
2023-03-30T16:53:40.768Z,95201.31
2023-03-30T16:56:19.599Z,95208.19
2023-03-30T16:58:51.401Z,95205.13
2023-03-30T17:01:23.581Z,95209.59
2023-03-30T17:03:55.125Z,95211.88
2023-03-30T17:06:26.637Z,95206.53
2023-03-30T17:08:58.168Z,95210.69
2023-03-30T17:11:29.758Z,95213.38
2023-03-30T17:14:01.243Z,95217.13
2023-03-30T17:16:34.186Z,95221.28
2023-03-30T17:19:06.521Z,95227.03
2023-03-30T17:21:37.965Z,95226.59
2023-03-30T17:24:10.632Z,95227.75
2023-03-30T17:26:42.481Z,95224.38
2023-03-30T17:29:13.976Z,95231.91
2023-03-30T17:31:46.096Z,95226.19
2023-03-30T17:34:17.559Z,95228.47
2023-03-30T17:36:49.130Z,95225.41
2023-03-30T17:39:20.685Z,95225.34
2023-03-30T17:41:52.231Z,95228.78
2023-03-30T17:44:24.213Z,95228.78
2023-03-30T17:46:56.666Z,95225.34
2023-03-30T17:49:28.138Z,95230.28
2023-03-30T17:51:59.704Z,95227.63
2023-03-30T17:54:31.239Z,95237.16
2023-03-30T17:57:04.455Z,95225.69
2023-03-30T17:59:36.302Z,95247.78
2023-03-30T18:02:08.733Z,95242.44
2023-03-30T18:04:40.557Z,95257.69
2023-03-30T18:07:12.653Z,95251.97
2023-03-30T18:09:44.173Z,95229.81
2023-03-30T18:12:16.238Z,95212.28
2023-03-30T18:14:47.724Z,95215.31
2023-03-30T18:17:19.275Z,95233.59
2023-03-30T18:19:51.644Z,95233.25
2023-03-30T18:22:23.214Z,95240.47
2023-03-30T18:24:56.204Z,95244.28
2023-03-30T18:27:27.741Z,95246.94
2023-03-30T18:29:59.413Z,95248.03
2023-03-30T18:32:44.270Z,95257.94
2023-03-30T18:35:20.030Z,95253.69
2023-03-30T18:37:55.687Z,95266.59
2023-03-30T18:40:34.650Z,95268.13
2023-03-30T18:43:06.529Z,95279.13
2023-03-30T18:45:50.020Z,95279.50
2023-03-30T18:48:22.637Z,95267.69
2023-03-30T18:50:56.467Z,95279.06
2023-03-30T18:53:33.371Z,95279.78
2023-03-30T18:56:06.901Z,95283.59
2023-03-30T18:58:41.934Z,95282.81
2023-03-30T19:01:16.415Z,95283.16
2023-03-30T19:03:49.782Z,95277.41
2023-03-30T19:06:25.922Z,95286.56
2023-03-30T19:08:57.470Z,95282.34
2023-03-30T19:11:30.227Z,95286.53
2023-03-30T19:14:09.669Z,95286.81
2023-03-30T19:16:41.904Z,95292.06
2023-03-30T19:19:15.821Z,95293.59
2023-03-30T19:21:47.501Z,95307.72
2023-03-30T19:24:20.449Z,95307.28
2023-03-30T19:26:59.537Z,95309.59
2023-03-30T19:29:31.247Z,95304.63
2023-03-30T19:32:02.944Z,95315.66
2023-03-30T19:34:36.533Z,95307.66
2023-03-30T19:37:08.776Z,95315.25
2023-03-30T19:39:40.194Z,95328.22
2023-03-30T19:42:11.938Z,95338.50
2023-03-30T19:44:46.494Z,95342.38
2023-03-30T19:47:18.021Z,95373.28
2023-03-30T19:49:49.531Z,95378.91
2023-03-30T19:52:23.207Z,95377.03
2023-03-30T19:54:54.937Z,95357.66
2023-03-30T19:57:26.504Z,95366.75
2023-03-30T19:59:59.716Z,95386.78
2023-03-30T20:02:33.366Z,95382.59
2023-03-30T20:05:06.888Z,95397.00
2023-03-30T20:07:39.245Z,95393.09
2023-03-30T20:10:12.694Z,95391.69
2023-03-30T20:12:44.404Z,95379.28
2023-03-30T20:15:18.357Z,95363.22
2023-03-30T20:17:49.984Z,95342.28
2023-03-30T20:20:25.897Z,95330.94
2023-03-30T20:22:57.610Z,95338.56
2023-03-30T20:25:29.577Z,95337.81
2023-03-30T20:28:02.566Z,95341.25
2023-03-30T20:30:37.347Z,95342.03
2023-03-30T20:33:09.049Z,95333.59
2023-03-30T20:35:41.744Z,95331.28
2023-03-30T20:38:14.698Z,95324.47
2023-03-30T20:41:00.102Z,95327.19
2023-03-30T20:43:40.653Z,95325.66
2023-03-30T20:46:22.034Z,95311.59
2023-03-30T20:49:01.946Z,95312.38
2023-03-30T20:51:34.755Z,95311.97
2023-03-30T20:54:06.674Z,95310.34
2023-03-30T20:56:38.382Z,95302.06
2023-03-30T20:59:11.002Z,95300.19
2023-03-30T21:01:43.998Z,95304.06
2023-03-30T21:04:16.993Z,95305.94
2023-03-30T21:06:49.842Z,95301.03
2023-03-30T21:09:21.547Z,95308.25
2023-03-30T21:11:53.198Z,95303.28
2023-03-30T21:14:24.997Z,95308.19
2023-03-30T21:16:56.555Z,95305.53
2023-03-30T21:19:29.484Z,95301.97
2023-03-30T21:22:01.294Z,95302.06
2023-03-30T21:24:34.390Z,95305.53
2023-03-30T21:27:08.434Z,95297.19
2023-03-30T21:29:40.348Z,95292.63
2023-03-30T21:32:11.927Z,95290.41
2023-03-30T21:34:43.709Z,95286.97
2023-03-30T21:37:15.436Z,95284.31
2023-03-30T21:39:47.109Z,95281.25
2023-03-30T21:42:18.744Z,95283.19
2023-03-30T21:44:51.372Z,95271.34
2023-03-30T21:47:23.047Z,95272.88
2023-03-30T21:49:54.648Z,95266.34
2023-03-30T21:52:26.394Z,95270.50
2023-03-30T21:54:58.216Z,95260.88
2023-03-30T21:57:30.430Z,95261.03
2023-03-30T22:00:02.170Z,95256.84
2023-03-30T22:02:33.820Z,95253.03
2023-03-30T22:05:06.167Z,95249.91
2023-03-30T22:07:37.559Z,95253.22
2023-03-30T22:10:09.515Z,95250.91
2023-03-30T22:12:41.463Z,95248.56
2023-03-30T22:15:13.045Z,95250.00
2023-03-30T22:17:45.908Z,95241.94
2023-03-30T22:20:18.334Z,95235.81
2023-03-30T22:22:49.984Z,95239.56
2023-03-30T22:25:21.710Z,95234.25
2023-03-30T22:27:57.915Z,95232.69
2023-03-30T22:30:31.006Z,95234.22
2023-03-30T22:33:02.735Z,95224.69
2023-03-30T22:35:39.022Z,95227.75
2023-03-30T22:38:11.854Z,95234.22
2023-03-30T22:40:43.614Z,95227.00
2023-03-30T22:43:15.119Z,95229.28
2023-03-30T22:45:46.587Z,95215.59
2023-03-30T22:48:17.933Z,95220.16
2023-03-30T22:50:49.446Z,95215.59
2023-03-30T22:53:20.847Z,95214.47
2023-03-30T22:55:54.643Z,95212.06
2023-03-30T22:58:27.382Z,95208.63
2023-03-30T23:00:59.580Z,95192.69
2023-03-30T23:03:31.420Z,95191.53
2023-03-30T23:06:03.530Z,95183.91
2023-03-30T23:08:36.926Z,95178.22
2023-03-30T23:11:08.477Z,95177.09
2023-03-30T23:13:42.121Z,95180.50
2023-03-30T23:16:13.798Z,95172.50
2023-03-30T23:18:45.219Z,95162.56
2023-03-30T23:21:17.425Z,95172.09
2023-03-30T23:23:48.829Z,95171.28
2023-03-30T23:26:20.248Z,95162.94
2023-03-30T23:28:52.685Z,95167.09
2023-03-30T23:31:29.463Z,95157.25
2023-03-30T23:34:00.947Z,95159.53
2023-03-30T23:36:34.639Z,95151.91
2023-03-30T23:39:06.000Z,95156.84
2023-03-30T23:41:38.651Z,95158.72
2023-03-30T23:44:10.575Z,95143.81
2023-03-30T23:46:42.234Z,95155.59
2023-03-30T23:49:15.870Z,95148.69
2023-03-30T23:51:47.318Z,95141.06
2023-03-30T23:54:18.744Z,95136.16
2023-03-30T23:56:57.237Z,95137.72
2023-03-30T23:59:28.806Z,95123.69
